createdAt,value
2022-08-23T00:01:26.207Z,71.22
2022-08-23T00:03:58.103Z,71.57
2022-08-23T00:06:24.985Z,71.00
2022-08-23T00:08:52.638Z,70.83
2022-08-23T00:11:28.269Z,70.46
2022-08-23T00:13:54.947Z,69.65
2022-08-23T00:16:22.225Z,70.01
2022-08-23T00:18:49.568Z,69.68
2022-08-23T00:21:16.920Z,69.39
2022-08-23T00:23:43.950Z,69.51
2022-08-23T00:26:11.300Z,70.76
2022-08-23T00:28:38.179Z,73.18
2022-08-23T00:31:05.174Z,75.22
2022-08-23T00:33:32.164Z,77.33
2022-08-23T00:35:58.807Z,78.05
2022-08-23T00:38:34.169Z,78.25
2022-08-23T00:41:02.648Z,78.40
2022-08-23T00:43:55.259Z,78.98
2022-08-23T00:46:56.024Z,79.74
2022-08-23T00:49:23.108Z,83.25
2022-08-23T00:51:57.568Z,86.15
2022-08-23T00:54:27.204Z,84.25
2022-08-23T00:56:56.672Z,83.36
2022-08-23T00:59:24.258Z,83.17
2022-08-23T01:06:46.133Z,82.56
2022-08-23T01:09:16.269Z,83.68
2022-08-23T01:11:51.759Z,83.71
2022-08-23T01:14:29.639Z,84.45
2022-08-23T01:17:03.308Z,84.46
2022-08-23T01:19:44.001Z,84.64
2022-08-23T01:22:25.185Z,84.81
2022-08-23T01:25:07.815Z,85.07
2022-08-23T01:27:39.421Z,87.09
2022-08-23T01:30:09.329Z,89.07
2022-08-23T01:32:44.365Z,91.27
2022-08-23T01:35:11.453Z,89.78
2022-08-23T01:37:38.344Z,90.54
2022-08-23T01:40:05.985Z,91.41
2022-08-23T01:42:32.728Z,91.72
2022-08-23T01:44:59.521Z,90.42
2022-08-23T01:47:27.534Z,90.53
2022-08-23T01:49:54.267Z,91.57
2022-08-23T01:52:21.305Z,93.93
2022-08-23T01:54:48.897Z,94.41
2022-08-23T01:57:15.723Z,91.39
2022-08-23T01:59:43.088Z,91.91
2022-08-23T02:02:10.059Z,92.09
2022-08-23T02:04:36.813Z,92.29
2022-08-23T02:07:03.616Z,91.13
2022-08-23T02:09:31.803Z,91.26
2022-08-23T02:12:00.569Z,90.50
2022-08-23T02:14:28.431Z,90.97
2022-08-23T02:17:04.423Z,89.52
2022-08-23T02:19:36.443Z,89.33
2022-08-23T02:22:05.604Z,89.38
2022-08-23T02:24:32.800Z,88.80
2022-08-23T02:27:08.546Z,89.76
2022-08-23T02:29:39.473Z,91.21
2022-08-23T02:32:12.315Z,94.84
2022-08-23T02:34:40.388Z,96.88
2022-08-23T02:37:09.121Z,95.93
2022-08-23T02:39:36.774Z,94.41
2022-08-23T02:42:06.960Z,93.92
2022-08-23T02:44:35.548Z,95.33
2022-08-23T02:47:03.494Z,95.51
2022-08-23T02:49:30.166Z,94.26
2022-08-23T02:51:57.170Z,94.65
2022-08-23T02:54:24.135Z,97.78
2022-08-23T02:56:52.645Z,98.96
2022-08-23T02:59:19.659Z,98.77
2022-08-23T03:01:47.503Z,99.12
2022-08-23T03:04:27.858Z,100.00
2022-08-23T03:06:55.330Z,100.00
2022-08-23T03:09:22.094Z,100.00
2022-08-23T03:11:50.613Z,100.00
2022-08-23T03:14:19.246Z,100.00
2022-08-23T03:16:46.512Z,100.00
2022-08-23T03:19:13.460Z,100.00
2022-08-23T03:21:40.336Z,100.00
2022-08-23T03:24:11.410Z,100.00
2022-08-23T03:26:43.023Z,100.00
2022-08-23T03:29:10.116Z,100.00
2022-08-23T03:31:53.877Z,100.00
2022-08-23T03:34:21.316Z,100.00
2022-08-23T03:36:48.118Z,100.00
2022-08-23T03:39:15.085Z,100.00
2022-08-23T03:41:42.099Z,100.00
2022-08-23T03:44:08.836Z,100.00
2022-08-23T03:46:39.707Z,100.00
2022-08-23T03:49:06.729Z,100.00
2022-08-23T03:51:43.072Z,100.00
2022-08-23T03:54:10.096Z,100.00
2022-08-23T03:56:40.024Z,100.00
2022-08-23T03:59:13.540Z,100.00
2022-08-23T04:01:40.739Z,100.00
2022-08-23T04:04:07.503Z,100.00
2022-08-23T04:06:38.326Z,100.00
2022-08-23T04:09:05.131Z,100.00
2022-08-23T04:11:32.452Z,100.00
2022-08-23T04:14:04.694Z,100.00
2022-08-23T04:16:37.229Z,100.00
2022-08-23T04:19:05.907Z,100.00
2022-08-23T04:21:38.336Z,100.00
2022-08-23T04:24:05.768Z,100.00
2022-08-23T04:26:33.630Z,100.00
2022-08-23T04:29:00.807Z,100.00
2022-08-23T04:31:27.745Z,100.00
2022-08-23T04:34:02.363Z,100.00
2022-08-23T04:36:35.505Z,100.00
2022-08-23T04:39:02.267Z,100.00
2022-08-23T04:41:47.516Z,100.00
2022-08-23T04:44:15.432Z,100.00
2022-08-23T04:46:43.793Z,100.00
2022-08-23T04:49:12.130Z,100.00
2022-08-23T04:51:38.899Z,100.00
2022-08-23T04:54:06.097Z,100.00
2022-08-23T04:56:43.041Z,100.00
2022-08-23T04:59:13.222Z,100.00
2022-08-23T05:01:42.811Z,100.00
2022-08-23T05:04:09.588Z,100.00
2022-08-23T05:06:38.676Z,100.00
2022-08-23T05:09:05.527Z,100.00
2022-08-23T05:11:33.960Z,100.00
2022-08-23T05:14:20.981Z,100.00
2022-08-23T05:16:47.782Z,100.00
2022-08-23T05:19:14.587Z,100.00
2022-08-23T05:21:44.439Z,100.00
2022-08-23T05:24:13.695Z,100.00
2022-08-23T05:26:41.387Z,100.00
2022-08-23T05:29:08.957Z,100.00
2022-08-23T05:31:42.164Z,100.00
2022-08-23T05:34:09.427Z,100.00
2022-08-23T05:36:47.458Z,100.00
2022-08-23T05:39:26.398Z,100.00
2022-08-23T05:42:06.570Z,100.00
2022-08-23T05:44:36.202Z,100.00
2022-08-23T05:47:10.166Z,100.00
2022-08-23T05:49:42.628Z,100.00
2022-08-23T05:52:12.726Z,100.00
2022-08-23T05:54:41.986Z,100.00
2022-08-23T05:57:27.028Z,100.00
2022-08-23T05:59:53.773Z,100.00
2022-08-23T06:02:20.985Z,100.00
2022-08-23T06:04:47.681Z,100.00
2022-08-23T06:07:14.788Z,100.00
2022-08-23T06:09:41.516Z,100.00
2022-08-23T06:12:09.699Z,100.00
2022-08-23T06:14:38.492Z,100.00
2022-08-23T06:17:05.540Z,100.00
2022-08-23T06:19:32.327Z,100.00
2022-08-23T06:22:12.598Z,100.00
2022-08-23T06:24:41.844Z,100.00
2022-08-23T06:27:13.599Z,100.00
2022-08-23T06:29:42.149Z,97.95
2022-08-23T06:32:27.382Z,96.30
2022-08-23T06:35:31.397Z,94.57
2022-08-23T06:38:19.015Z,93.62
2022-08-23T06:40:48.635Z,92.33
2022-08-23T06:43:27.621Z,91.07
2022-08-23T06:46:29.342Z,90.19
2022-08-23T06:48:59.470Z,88.32
2022-08-23T06:51:30.584Z,87.14
2022-08-23T06:54:26.911Z,86.30
2022-08-23T06:57:01.031Z,85.07
2022-08-23T06:59:31.179Z,84.18
2022-08-23T07:02:01.792Z,83.11
2022-08-23T07:04:53.702Z,80.93
2022-08-23T07:07:47.498Z,79.34
2022-08-23T07:10:15.440Z,77.65
2022-08-23T07:12:42.860Z,76.32
2022-08-23T07:15:11.652Z,75.00
2022-08-23T07:17:39.607Z,73.13
2022-08-23T07:20:06.659Z,72.18
2022-08-23T07:22:35.604Z,71.51
2022-08-23T07:25:04.018Z,68.55
2022-08-23T07:27:31.916Z,68.60
2022-08-23T07:30:05.608Z,66.75
2022-08-23T07:32:32.718Z,65.46
2022-08-23T07:35:08.037Z,63.49
2022-08-23T07:37:37.717Z,62.00
2022-08-23T07:40:08.213Z,60.68
2022-08-23T07:42:35.233Z,59.41
2022-08-23T07:45:02.871Z,57.93
2022-08-23T07:47:33.514Z,58.96
2022-08-23T07:50:00.584Z,58.64
2022-08-23T07:52:28.504Z,57.48
2022-08-23T07:54:55.263Z,56.69
2022-08-23T07:57:31.226Z,54.98
2022-08-23T08:00:08.200Z,54.13
2022-08-23T08:02:48.253Z,53.43
2022-08-23T08:05:23.028Z,53.61
2022-08-23T08:07:51.398Z,52.59
2022-08-23T08:10:18.932Z,51.56
2022-08-23T08:12:45.608Z,52.46
2022-08-23T08:15:19.005Z,51.59
2022-08-23T08:17:52.224Z,53.18
2022-08-23T08:20:20.242Z,51.57
2022-08-23T08:23:16.119Z,50.53
2022-08-23T08:26:07.007Z,51.49
2022-08-23T08:28:36.563Z,51.06
2022-08-23T08:31:05.405Z,51.01
2022-08-23T08:33:34.303Z,50.87
2022-08-23T08:36:04.318Z,49.99
2022-08-23T08:38:38.833Z,50.57
2022-08-23T08:41:25.154Z,49.73
2022-08-23T08:44:08.495Z,49.01
2022-08-23T08:46:49.988Z,47.09
2022-08-23T08:49:44.550Z,47.07
2022-08-23T08:52:16.264Z,46.28
2022-08-23T08:54:48.170Z,45.66
2022-08-23T08:57:25.304Z,45.77
2022-08-23T09:00:00.322Z,44.79
2022-08-23T09:02:33.498Z,45.15
2022-08-23T09:05:12.997Z,45.17
2022-08-23T09:07:50.554Z,44.74
2022-08-23T09:10:17.221Z,43.87
2022-08-23T09:13:38.057Z,43.81
2022-08-23T09:16:08.247Z,44.11
2022-08-23T09:18:36.916Z,44.40
2022-08-23T09:21:07.484Z,44.19
2022-08-23T09:23:41.423Z,44.09
2022-08-23T09:26:23.344Z,43.22
2022-08-23T09:28:54.260Z,42.82
2022-08-23T09:31:50.770Z,43.17
2022-08-23T09:34:30.511Z,42.84
2022-08-23T09:37:13.857Z,42.77
2022-08-23T09:39:47.591Z,42.18
2022-08-23T09:42:36.434Z,41.11
2022-08-23T09:45:35.421Z,41.62
2022-08-23T09:48:06.215Z,40.27
2022-08-23T09:50:42.257Z,38.69
2022-08-23T09:53:14.444Z,38.00
2022-08-23T09:55:49.413Z,36.53
2022-08-23T09:58:25.922Z,37.27
2022-08-23T10:01:16.476Z,37.39
2022-08-23T10:04:05.785Z,36.63
2022-08-23T10:06:36.124Z,34.86
2022-08-23T10:09:07.485Z,35.93
2022-08-23T10:11:41.156Z,35.77
2022-08-23T10:14:11.379Z,36.08
2022-08-23T10:17:08.395Z,35.52
2022-08-23T10:19:38.438Z,35.65
2022-08-23T10:22:27.599Z,34.42
2022-08-23T10:25:23.491Z,34.38
2022-08-23T10:28:55.998Z,32.95
2022-08-23T10:31:59.153Z,32.73
2022-08-23T10:34:47.094Z,32.95
2022-08-23T10:37:29.175Z,32.34
2022-08-23T10:40:10.310Z,33.22
2022-08-23T10:42:50.406Z,33.16
2022-08-23T10:45:31.982Z,31.95
2022-08-23T10:48:21.266Z,31.98
2022-08-23T10:50:57.330Z,31.86
2022-08-23T10:53:52.456Z,32.30
2022-08-23T10:56:21.009Z,33.08
2022-08-23T10:59:03.299Z,32.46
2022-08-23T11:01:31.629Z,33.00
2022-08-23T11:04:06.604Z,32.26
2022-08-23T11:07:00.273Z,32.49
2022-08-23T11:09:27.403Z,32.46
2022-08-23T11:12:16.036Z,33.19
2022-08-23T11:14:48.148Z,32.68
2022-08-23T11:17:24.704Z,31.70
2022-08-23T11:19:58.598Z,30.91
2022-08-23T11:22:31.657Z,30.96
2022-08-23T11:25:25.813Z,30.18
2022-08-23T11:28:21.828Z,30.38
2022-08-23T11:31:08.480Z,30.09
2022-08-23T11:33:47.182Z,29.71
2022-08-23T11:36:15.544Z,29.32
2022-08-23T11:38:43.579Z,28.29
2022-08-23T11:41:16.207Z,28.95
2022-08-23T11:43:45.878Z,28.49
2022-08-23T11:46:27.722Z,29.05
2022-08-23T11:49:44.109Z,29.54
2022-08-23T11:52:46.499Z,29.35
2022-08-23T11:55:13.116Z,28.71
2022-08-23T11:57:57.935Z,27.96
2022-08-23T12:00:29.320Z,27.55
2022-08-23T12:03:34.916Z,28.65
2022-08-23T12:06:07.704Z,28.36
2022-08-23T12:09:32.674Z,27.88
2022-08-23T12:12:00.831Z,28.03
2022-08-23T12:14:45.352Z,28.78
2022-08-23T12:17:11.963Z,28.76
2022-08-23T12:19:42.873Z,27.64
2022-08-23T12:22:23.391Z,28.75
2022-08-23T12:25:03.602Z,28.12
2022-08-23T12:27:45.300Z,28.94
2022-08-23T12:30:12.084Z,29.53
2022-08-23T12:32:55.187Z,28.43
2022-08-23T12:35:27.921Z,28.13
2022-08-23T12:38:16.161Z,27.54
2022-08-23T12:40:46.777Z,27.25
2022-08-23T12:43:16.761Z,27.42
2022-08-23T12:45:54.439Z,26.88
2022-08-23T12:48:24.999Z,27.49
2022-08-23T12:50:56.050Z,27.83
2022-08-23T12:53:27.801Z,28.21
2022-08-23T12:56:01.533Z,28.52
2022-08-23T12:58:33.422Z,27.63
2022-08-23T13:01:04.781Z,27.73
2022-08-23T13:03:45.468Z,27.56
2022-08-23T13:06:18.817Z,27.03
2022-08-23T13:09:01.936Z,26.42
2022-08-23T13:11:32.580Z,26.85
2022-08-23T13:14:01.098Z,27.07
2022-08-23T13:16:36.952Z,27.23
2022-08-23T13:19:23.489Z,26.93
2022-08-23T13:22:19.071Z,27.25
2022-08-23T13:25:24.653Z,27.25
2022-08-23T13:27:45.417Z,27.01
2022-08-23T13:30:14.843Z,27.58
2022-08-23T13:32:48.162Z,26.87
2022-08-23T13:35:30.952Z,26.79
2022-08-23T13:38:24.125Z,26.82
2022-08-23T13:41:13.752Z,27.31
2022-08-23T13:43:43.376Z,27.79
2022-08-23T13:46:32.007Z,27.72
2022-08-23T13:49:19.725Z,27.27
2022-08-23T13:52:18.375Z,27.85
2022-08-23T13:54:45.930Z,26.93
2022-08-23T13:57:18.666Z,27.49
2022-08-23T13:59:52.059Z,27.87
2022-08-23T14:02:20.720Z,27.85
2022-08-23T14:04:48.057Z,27.44
2022-08-23T14:07:15.451Z,27.31
2022-08-23T14:09:45.740Z,26.74
2022-08-23T14:12:19.417Z,27.22
2022-08-23T14:14:50.288Z,27.66
2022-08-23T14:17:20.502Z,28.02
2022-08-23T14:20:32.861Z,27.87
2022-08-23T14:22:35.773Z,27.57
2022-08-23T14:25:02.663Z,28.31
2022-08-23T14:27:29.603Z,28.15
2022-08-23T14:29:56.288Z,27.91
2022-08-23T14:32:23.026Z,27.70
2022-08-23T14:34:49.977Z,27.95
2022-08-23T14:40:04.796Z,28.76
2022-08-23T14:42:31.804Z,28.16
2022-08-23T14:44:58.575Z,28.14
2022-08-23T14:47:26.724Z,28.72
2022-08-23T14:49:54.185Z,28.27
2022-08-23T14:52:21.571Z,28.50
2022-08-23T14:55:09.536Z,29.09
2022-08-23T14:57:36.710Z,28.93
2022-08-23T15:00:06.038Z,28.55
2022-08-23T15:02:33.025Z,28.42
2022-08-23T15:04:59.712Z,29.11
2022-08-23T15:07:26.340Z,29.15
2022-08-23T15:09:56.245Z,28.96
2022-08-23T15:15:14.507Z,29.47
2022-08-23T15:17:56.977Z,29.41
2022-08-23T15:20:30.495Z,29.52
2022-08-23T15:23:07.845Z,30.13
2022-08-23T15:25:38.251Z,29.79
2022-08-23T15:28:12.615Z,30.01
2022-08-23T15:30:40.533Z,29.53
2022-08-23T15:33:07.443Z,29.82
2022-08-23T15:35:45.579Z,29.60
2022-08-23T15:38:14.534Z,30.20
2022-08-23T15:40:42.116Z,30.13
2022-08-23T15:43:08.964Z,30.76
2022-08-23T15:45:36.206Z,29.88
2022-08-23T15:48:11.996Z,30.35
2022-08-23T15:50:38.829Z,30.04
2022-08-23T15:53:08.252Z,30.08
2022-08-23T15:55:35.565Z,30.28
2022-08-23T15:58:02.407Z,30.48
2022-08-23T16:00:29.381Z,30.30
2022-08-23T16:03:19.023Z,30.05
2022-08-23T16:05:45.955Z,29.89
2022-08-23T16:08:20.877Z,30.53
2022-08-23T16:10:47.665Z,30.70
2022-08-23T16:13:14.587Z,31.01
2022-08-23T16:16:03.094Z,30.59
2022-08-23T16:18:29.990Z,30.86
2022-08-23T16:20:56.667Z,30.38
2022-08-23T16:23:23.448Z,30.80
2022-08-23T16:25:50.535Z,30.45
2022-08-23T16:28:17.754Z,28.01
2022-08-23T16:30:44.641Z,26.07
2022-08-23T16:33:11.416Z,25.15
2022-08-23T16:35:38.135Z,24.93
2022-08-23T16:38:04.912Z,24.25
2022-08-23T16:40:31.646Z,23.82
2022-08-23T16:42:58.433Z,23.75
2022-08-23T16:45:26.237Z,23.88
2022-08-23T16:47:53.444Z,24.26
2022-08-23T16:50:20.408Z,24.03
2022-08-23T16:52:47.065Z,24.35
2022-08-23T16:55:14.339Z,24.24
2022-08-23T16:57:41.192Z,24.33
2022-08-23T17:00:13.849Z,23.82
2022-08-23T17:02:41.348Z,24.26
2022-08-23T17:05:12.474Z,23.83
2022-08-23T17:07:39.497Z,24.07
2022-08-23T17:10:08.009Z,23.74
2022-08-23T17:12:38.140Z,24.11
2022-08-23T17:15:06.093Z,23.90
2022-08-23T17:17:33.225Z,24.18
2022-08-23T17:19:59.940Z,23.91
2022-08-23T17:22:26.623Z,23.46
2022-08-23T17:24:55.968Z,24.25
2022-08-23T17:27:24.447Z,24.68
2022-08-23T17:30:16.878Z,24.94
2022-08-23T17:32:43.837Z,24.97
2022-08-23T17:35:14.890Z,25.46
2022-08-23T17:37:42.692Z,26.06
2022-08-23T17:40:14.296Z,25.99
2022-08-23T17:42:42.528Z,27.13
2022-08-23T17:45:10.940Z,28.92
2022-08-23T17:47:39.546Z,29.61
2022-08-23T17:50:07.147Z,30.02
2022-08-23T17:52:34.368Z,29.71
2022-08-23T17:55:01.187Z,30.80
2022-08-23T17:57:31.311Z,31.10
2022-08-23T18:00:00.216Z,31.86
2022-08-23T18:02:27.097Z,32.74
2022-08-23T18:04:53.969Z,33.23
2022-08-23T18:07:21.783Z,33.91
2022-08-23T18:09:48.915Z,34.03
2022-08-23T18:12:16.069Z,34.36
2022-08-23T18:14:43.996Z,35.28
2022-08-23T18:17:10.739Z,35.74
2022-08-23T18:19:37.459Z,36.29
2022-08-23T18:22:04.223Z,37.14
2022-08-23T18:24:31.784Z,37.51
2022-08-23T18:27:21.216Z,38.08
2022-08-23T18:29:51.385Z,38.53
2022-08-23T18:32:19.000Z,38.95
2022-08-23T18:34:46.261Z,39.03
2022-08-23T18:37:16.825Z,40.04
2022-08-23T18:39:44.271Z,40.04
2022-08-23T18:42:12.040Z,40.56
2022-08-23T18:44:38.788Z,39.79
2022-08-23T18:47:05.511Z,39.70
2022-08-23T18:49:33.725Z,40.81
2022-08-23T18:52:01.674Z,40.57
2022-08-23T18:54:33.088Z,40.49
2022-08-23T18:57:00.856Z,41.08
2022-08-23T18:59:27.563Z,41.08
2022-08-23T19:01:55.111Z,41.10
2022-08-23T19:04:21.917Z,41.31
2022-08-23T19:06:48.698Z,41.96
2022-08-23T19:09:20.218Z,42.30
2022-08-23T19:11:46.885Z,42.01
2022-08-23T19:14:13.884Z,42.53
2022-08-23T19:16:44.652Z,43.06
2022-08-23T19:19:15.116Z,43.71
2022-08-23T19:21:41.912Z,43.63
2022-08-23T19:24:08.644Z,44.34
2022-08-23T19:26:55.901Z,44.27
2022-08-23T19:29:22.625Z,44.17
2022-08-23T19:31:50.221Z,44.82
2022-08-23T19:34:19.114Z,45.20
2022-08-23T19:36:51.754Z,45.39
2022-08-23T19:39:26.034Z,45.04
2022-08-23T19:41:52.695Z,45.63
2022-08-23T19:44:19.440Z,45.38
2022-08-23T19:46:46.169Z,45.40
2022-08-23T19:49:14.634Z,46.31
2022-08-23T19:51:42.272Z,46.89
2022-08-23T19:54:11.394Z,46.91
2022-08-23T19:56:50.543Z,47.70
2022-08-23T19:59:20.382Z,48.55
2022-08-23T20:01:52.778Z,49.22
2022-08-23T20:04:21.528Z,49.54
2022-08-23T20:06:48.747Z,49.27
2022-08-23T20:09:15.611Z,50.36
2022-08-23T20:11:42.569Z,50.70
2022-08-23T20:14:10.167Z,50.25
2022-08-23T20:16:40.920Z,49.88
2022-08-23T20:19:09.504Z,50.36
2022-08-23T20:21:37.691Z,50.64
2022-08-23T20:24:05.431Z,50.51
2022-08-23T20:26:42.716Z,50.20
2022-08-23T20:29:13.115Z,50.39
2022-08-23T20:31:57.245Z,50.28
2022-08-23T20:34:27.043Z,50.14
2022-08-23T20:36:55.952Z,51.74
2022-08-23T20:39:24.404Z,52.09
2022-08-23T20:41:52.302Z,52.33
2022-08-23T20:44:21.483Z,51.70
2022-08-23T20:46:53.703Z,52.14
2022-08-23T20:49:41.294Z,52.19
2022-08-23T20:52:08.442Z,52.08
2022-08-23T20:54:35.940Z,52.16
2022-08-23T20:57:02.672Z,52.96
2022-08-23T20:59:29.483Z,53.67
2022-08-23T21:01:56.289Z,53.77
2022-08-23T21:04:29.882Z,54.66
2022-08-23T21:06:57.746Z,54.98
2022-08-23T21:09:29.136Z,55.94
2022-08-23T21:11:56.992Z,55.93
2022-08-23T21:14:24.150Z,55.95
2022-08-23T21:16:50.931Z,55.80
2022-08-23T21:19:18.739Z,58.99
2022-08-23T21:21:45.475Z,60.63
2022-08-23T21:24:12.983Z,62.66
2022-08-23T21:26:39.894Z,62.52
2022-08-23T21:29:08.291Z,61.78
2022-08-23T21:31:35.568Z,61.57
2022-08-23T21:34:02.528Z,61.27
2022-08-23T21:36:29.354Z,61.68
2022-08-23T21:38:56.600Z,61.86
2022-08-23T21:41:37.585Z,61.87
2022-08-23T21:44:08.349Z,62.49
2022-08-23T21:46:35.798Z,63.75
2022-08-23T21:49:03.372Z,64.24
2022-08-23T21:51:30.130Z,63.85
2022-08-23T21:53:57.381Z,64.74
2022-08-23T21:56:24.661Z,65.31
2022-08-23T21:58:54.541Z,65.10
2022-08-23T22:01:21.313Z,66.38
2022-08-23T22:03:48.081Z,67.58
2022-08-23T22:06:16.612Z,66.85
2022-08-23T22:08:44.493Z,67.28
2022-08-23T22:11:12.445Z,67.83
2022-08-23T22:13:40.014Z,67.78
2022-08-23T22:16:07.159Z,67.89
2022-08-23T22:18:34.348Z,67.78
2022-08-23T22:21:01.655Z,68.14
2022-08-23T22:23:31.373Z,69.09
2022-08-23T22:26:03.978Z,69.44
2022-08-23T22:28:32.540Z,70.23
2022-08-23T22:31:01.370Z,70.26
2022-08-23T22:33:28.584Z,70.47
2022-08-23T22:36:01.110Z,70.86
2022-08-23T22:38:28.123Z,71.33
2022-08-23T22:40:54.799Z,71.04
2022-08-23T22:43:21.480Z,71.82
2022-08-23T22:45:50.903Z,72.41
2022-08-23T22:48:17.757Z,73.49
2022-08-23T22:50:44.931Z,74.88
2022-08-23T22:53:12.076Z,75.96
2022-08-23T22:55:40.726Z,75.89
2022-08-23T22:58:09.148Z,75.40
2022-08-23T23:00:42.445Z,75.29
2022-08-23T23:03:10.479Z,76.76
2022-08-23T23:05:38.077Z,78.31
2022-08-23T23:08:23.592Z,79.38
2022-08-23T23:10:50.601Z,78.96
2022-08-23T23:13:17.489Z,78.04
2022-08-23T23:15:44.277Z,77.87
2022-08-23T23:18:10.993Z,77.66
2022-08-23T23:20:39.016Z,77.80
2022-08-23T23:23:11.147Z,79.52
2022-08-23T23:25:40.420Z,80.21
2022-08-23T23:28:07.292Z,79.80
2022-08-23T23:30:34.741Z,79.87
2022-08-23T23:33:02.144Z,79.97
2022-08-23T23:35:29.060Z,80.05
2022-08-23T23:37:56.754Z,80.16
2022-08-23T23:40:24.387Z,82.11
2022-08-23T23:42:52.330Z,83.04
2022-08-23T23:45:19.256Z,83.52
2022-08-23T23:47:46.226Z,83.44
2022-08-23T23:50:14.347Z,82.82
2022-08-23T23:52:41.535Z,83.25
2022-08-23T23:55:12.081Z,82.95
2022-08-23T23:57:39.180Z,85.97
